Time;durP1;ratioP1;P1;durP2;ratioP2;P2;SDS_P1;SDS_P2;PMS_P1;PMS_P2;Temp;Humidity;BMP_temperature;BMP_pressure;BME280_temperature;BME280_humidity;BME280_pressure;Samples;Min_cycle;Max_cycle;Signal;HPM_P1;HPM_P2
2021/09/26 00:00:40;;;;;;;1.85;1.75;;;;;;;16.64;71.60;99972.94;4964328;28;20089;-70
2021/09/26 00:03:05;;;;;;;1.80;1.70;;;;;;;16.59;71.74;99971.16;4986101;28;20034;-69
2021/09/26 00:05:31;;;;;;;1.67;1.55;;;;;;;16.57;71.94;99974.22;4974410;28;20105;-70
2021/09/26 00:07:56;;;;;;;1.27;1.27;;;;;;;16.60;71.92;99971.97;4998754;28;20026;-76
2021/09/26 00:10:21;;;;;;;0.75;0.75;;;;;;;16.58;71.57;99970.31;4967474;28;20037;-76
2021/09/26 00:12:47;;;;;;;1.15;1.15;;;;;;;16.57;72.00;99974.22;5006000;28;20026;-76
2021/09/26 00:15:19;;;;;;;1.10;1.10;;;;;;;16.57;72.05;99971.47;5000634;28;20053;-76
2021/09/26 00:17:45;;;;;;;1.10;1.00;;;;;;;16.57;71.89;99974.22;4994803;28;20572;-76
2021/09/26 00:20:11;;;;;;;1.20;1.20;;;;;;;16.60;71.95;99978.28;4978263;28;20035;-76
2021/09/26 00:22:37;;;;;;;1.00;1.00;;;;;;;16.63;71.99;99971.31;4996842;28;20486;-77
2021/09/26 00:25:03;;;;;;;1.63;1.52;;;;;;;16.67;72.23;99962.06;4993081;28;20037;-77
2021/09/26 00:27:29;;;;;;;1.50;1.40;;;;;;;16.76;71.95;99964.88;4984280;28;20081;-77
2021/09/26 00:29:54;;;;;;;1.15;1.05;;;;;;;16.82;71.91;99973.84;4968152;28;20023;-76
2021/09/26 00:32:20;;;;;;;2.38;0.90;;;;;;;16.87;71.54;99966.25;4992660;28;20046;-77
2021/09/26 00:34:46;;;;;;;2.30;2.20;;;;;;;16.88;71.49;99956.84;4993058;28;20526;-77
2021/09/26 00:37:12;;;;;;;1.85;1.75;;;;;;;16.89;71.73;99957.66;4978748;28;20031;-77
2021/09/26 00:39:39;;;;;;;1.80;1.70;;;;;;;16.90;71.41;99949.03;4999934;28;20041;-79
2021/09/26 00:42:05;;;;;;;2.17;2.08;;;;;;;16.92;71.51;99946.78;4963567;28;20037;-77
2021/09/26 00:44:31;;;;;;;2.92;2.72;;;;;;;16.90;71.17;99943.50;4996424;28;20034;-79
2021/09/26 00:46:58;;;;;;;1.75;1.73;;;;;;;16.90;71.85;99945.47;4981950;28;20042;-75
2021/09/26 00:49:24;;;;;;;2.28;2.17;;;;;;;16.90;71.64;99940.75;4977286;28;20027;-75
2021/09/26 00:51:50;;;;;;;2.05;1.95;;;;;;;16.90;71.36;99937.19;4981584;28;20030;-76
2021/09/26 00:54:16;;;;;;;2.63;2.53;;;;;;;16.91;71.15;99939.63;4997671;28;20086;-76
2021/09/26 00:56:48;;;;;;;2.53;2.28;;;;;;;16.90;71.29;99938.00;4983978;28;20097;-77
2021/09/26 00:59:18;;;;;;;1.98;1.88;;;;;;;16.85;71.05;99940.88;4981818;28;20040;-74
2021/09/26 01:01:47;;;;;;;1.80;1.70;;;;;;;16.77;71.50;99938.09;4998480;28;20443;-76
2021/09/26 01:04:13;;;;;;;1.33;1.27;;;;;;;16.67;71.23;99936.44;4980679;28;20050;-75
2021/09/26 01:06:56;;;;;;;0.98;0.98;;;;;;;16.60;71.51;99941.59;4974953;28;20288;-74
2021/09/26 01:09:40;;;;;;;1.10;1.10;;;;;;;16.53;71.18;99945.63;4984649;28;20026;-75
2021/09/26 01:12:23;;;;;;;1.15;1.15;;;;;;;16.45;71.48;99938.13;5005748;28;20030;-75
2021/09/26 01:15:03;;;;;;;1.02;1.02;;;;;;;16.38;71.54;99943.28;4991494;28;20029;-75
2021/09/26 01:17:41;;;;;;;1.08;0.93;;;;;;;16.32;71.73;99936.28;5010118;28;20033;-76
2021/09/26 01:20:44;;;;;;;0.90;0.90;;;;;;;16.26;71.29;99940.28;4990614;28;20022;-74
2021/09/26 01:23:37;;;;;;;1.90;1.20;;;;;;;16.20;71.62;99936.84;4996958;28;20449;-73
2021/09/26 01:26:24;;;;;;;1.08;1.08;;;;;;;16.15;71.89;99937.81;4987311;28;20026;-74
2021/09/26 01:29:28;;;;;;;1.30;1.30;;;;;;;16.09;71.54;99936.31;4986194;28;20045;-74
2021/09/26 01:31:58;;;;;;;1.02;1.02;;;;;;;16.00;71.53;99932.66;4988970;28;20027;-74
2021/09/26 01:34:24;;;;;;;1.20;1.20;;;;;;;16.01;71.86;99935.09;4997498;28;20034;-73
2021/09/26 01:37:19;;;;;;;2.17;1.35;;;;;;;15.99;71.71;99934.63;4998141;28;20427;-74
2021/09/26 01:39:52;;;;;;;1.25;1.17;;;;;;;15.95;71.66;99936.38;4963038;28;20417;-75
2021/09/26 01:42:33;;;;;;;1.00;1.00;;;;;;;15.92;71.84;99930.69;5000937;28;20018;-76
2021/09/26 01:45:43;;;;;;;0.88;0.88;;;;;;;15.94;72.05;99933.94;4998158;28;20042;-76
2021/09/26 01:48:21;;;;;;;0.90;0.90;;;;;;;15.91;72.04;99926.28;4998951;28;20029;-76
2021/09/26 01:50:55;;;;;;;1.27;1.17;;;;;;;15.86;72.06;99921.72;4987857;28;20041;-75
2021/09/26 01:53:22;;;;;;;3.38;2.78;;;;;;;15.83;71.90;99922.34;4985794;28;20044;-76
2021/09/26 01:55:50;;;;;;;4.03;3.83;;;;;;;15.84;72.44;99929.47;4984169;28;20022;-77
2021/09/26 01:58:17;;;;;;;3.75;3.55;;;;;;;15.82;72.24;99929.00;4979575;28;20022;-76
2021/09/26 02:00:44;;;;;;;3.47;3.28;;;;;;;15.80;72.52;99926.53;4980745;28;20221;-76
2021/09/26 02:03:10;;;;;;;5.38;4.75;;;;;;;15.75;72.53;99914.78;4960709;28;20481;-75
2021/09/26 02:05:40;;;;;;;5.28;4.78;;;;;;;15.69;72.75;99914.09;4997822;28;20086;-75
2021/09/26 02:08:07;;;;;;;5.57;5.22;;;;;;;15.67;72.96;99916.38;5002190;28;20030;-75
2021/09/26 02:10:35;;;;;;;6.03;5.63;;;;;;;15.64;72.97;99922.50;5000116;28;20065;-74
2021/09/26 02:13:02;;;;;;;5.82;5.53;;;;;;;15.64;73.23;99919.75;5002086;28;20066;-75
2021/09/26 02:15:29;;;;;;;4.50;4.22;;;;;;;15.67;73.36;99921.88;4998430;28;20022;-76
2021/09/26 02:17:56;;;;;;;5.57;5.20;;;;;;;15.71;73.17;99917.34;5005070;28;20036;-76
2021/09/26 02:20:23;;;;;;;5.70;5.20;;;;;;;15.78;73.43;99909.50;4979460;28;20097;-74
2021/09/26 02:22:50;;;;;;;4.82;4.60;;;;;;;15.87;73.40;99915.91;5000893;28;20042;-77
2021/09/26 02:25:18;;;;;;;5.03;4.72;;;;;;;15.94;73.31;99920.16;4997782;28;20452;-76
2021/09/26 02:27:44;;;;;;;5.90;5.50;;;;;;;15.99;73.62;99917.25;4998584;28;20108;-75
2021/09/26 02:30:11;;;;;;;8.10;7.53;;;;;;;16.05;73.58;99913.25;4996867;28;20038;-76
2021/09/26 02:32:37;;;;;;;10.20;9.15;;;;;;;16.05;73.58;99910.50;4998078;28;20369;-76
2021/09/26 02:35:05;;;;;;;10.00;9.13;;;;;;;16.04;73.54;99901.38;4985877;28;20068;-75
2021/09/26 02:37:31;;;;;;;6.55;6.18;;;;;;;16.09;73.77;99903.22;5001914;28;20026;-75
2021/09/26 02:39:58;;;;;;;6.75;6.30;;;;;;;16.12;73.82;99891.56;4991298;28;20027;-76
2021/09/26 02:42:47;;;;;;;6.43;5.75;;;;;;;16.21;73.89;99895.16;4972600;28;20034;-77
2021/09/26 02:45:22;;;;;;;5.40;5.10;;;;;;;16.27;73.65;99889.53;4998351;28;20023;-77
2021/09/26 02:48:09;;;;;;;3.85;3.55;;;;;;;16.35;73.34;99880.44;4996987;28;20027;-76
2021/09/26 02:50:36;;;;;;;4.45;4.15;;;;;;;16.35;73.22;99877.69;4998809;28;20042;-76
2021/09/26 02:53:03;;;;;;;4.20;4.00;;;;;;;16.36;73.36;99871.06;4992740;28;20034;-76
2021/09/26 02:55:29;;;;;;;3.70;3.40;;;;;;;16.39;73.22;99868.44;5002360;28;20064;-78
2021/09/26 02:57:55;;;;;;;2.63;2.53;;;;;;;16.43;73.08;99873.31;4981099;28;20380;-78
2021/09/26 03:00:30;;;;;;;2.53;2.33;;;;;;;16.46;73.05;99869.97;4995556;28;20069;-77
2021/09/26 03:03:04;;;;;;;3.00;2.80;;;;;;;16.51;72.78;99867.84;4975825;28;20147;-77
2021/09/26 03:05:30;;;;;;;3.03;2.93;;;;;;;16.52;72.94;99866.72;4999184;28;20092;-78
2021/09/26 03:07:55;;;;;;;3.45;3.25;;;;;;;16.57;73.10;99880.38;4991133;28;20030;-77
2021/09/26 03:10:20;;;;;;;2.55;2.45;;;;;;;16.58;72.88;99875.66;4981557;28;20031;-77
2021/09/26 03:12:46;;;;;;;3.28;3.08;;;;;;;16.60;72.71;99878.09;4998714;28;20054;-77
2021/09/26 03:15:11;;;;;;;3.72;3.03;;;;;;;16.61;72.73;99874.22;4973418;28;20105;-76
2021/09/26 03:17:37;;;;;;;3.10;2.90;;;;;;;16.64;72.77;99873.59;4985280;28;20090;-77
2021/09/26 03:20:03;;;;;;;3.10;2.90;;;;;;;16.66;72.52;99868.53;4979395;28;20042;-78
2021/09/26 03:22:28;;;;;;;2.45;2.35;;;;;;;16.66;72.70;99860.25;5003335;28;20050;-76
2021/09/26 03:24:54;;;;;;;5.43;5.13;;;;;;;16.69;72.74;99862.38;4988093;28;20064;-78
2021/09/26 03:27:19;;;;;;;5.72;5.32;;;;;;;16.67;72.75;99859.13;4951748;28;20038;-76
2021/09/26 03:29:45;;;;;;;4.00;3.80;;;;;;;16.69;72.52;99862.38;4998037;28;20030;-78
2021/09/26 03:32:11;;;;;;;4.20;4.00;;;;;;;16.73;72.22;99863.38;4968642;28;20050;-76
2021/09/26 03:34:37;;;;;;;4.80;4.50;;;;;;;16.74;72.63;99856.72;4994218;28;20018;-76
2021/09/26 03:37:03;;;;;;;4.35;4.05;;;;;;;16.74;72.71;99856.72;5002189;28;20042;-75
2021/09/26 03:39:29;;;;;;;4.30;4.10;;;;;;;16.75;72.70;99852.84;4979935;28;20054;-75
2021/09/26 03:41:54;;;;;;;5.13;4.53;;;;;;;16.77;72.05;99856.06;4986336;28;20034;-75
2021/09/26 03:44:19;;;;;;;7.47;5.50;;;;;;;16.76;72.47;99859.97;4978382;28;20511;-75
2021/09/26 03:46:45;;;;;;;7.47;6.30;;;;;;;16.74;72.55;99862.25;4976684;28;20160;-75
2021/09/26 03:49:10;;;;;;;9.85;7.47;;;;;;;16.72;72.78;99861.75;4993362;28;20122;-74
2021/09/26 03:51:36;;;;;;;9.07;7.30;;;;;;;16.72;72.47;99856.25;4996442;28;20046;-74
2021/09/26 03:54:01;;;;;;;21.73;12.65;;;;;;;16.70;72.54;99856.53;4999988;28;20057;-75
2021/09/26 03:56:27;;;;;;;22.80;14.23;;;;;;;16.70;72.73;99856.53;4984691;28;20065;-73
2021/09/26 03:58:52;;;;;;;24.63;14.88;;;;;;;16.67;72.91;99856.38;4996909;28;20027;-73
2021/09/26 04:01:18;;;;;;;21.60;13.02;;;;;;;16.69;73.22;99865.97;4969294;28;20034;-73
2021/09/26 04:03:46;;;;;;;34.95;18.95;;;;;;;16.63;72.70;99861.75;4997460;28;20033;-74
2021/09/26 04:06:11;;;;;;;31.50;16.83;;;;;;;16.60;73.45;99864.31;5002552;28;20054;-74
2021/09/26 04:08:38;;;;;;;15.82;10.82;;;;;;;16.56;73.17;99855.88;4967082;28;20033;-75
2021/09/26 04:11:08;;;;;;;23.95;15.85;;;;;;;16.53;73.74;99862.84;4997099;28;20038;-75
2021/09/26 04:13:33;;;;;;;19.85;14.68;;;;;;;16.52;73.81;99863.97;5002611;28;20121;-74
2021/09/26 04:15:59;;;;;;;18.30;12.30;;;;;;;16.51;74.15;99859.56;4965402;28;20057;-74
2021/09/26 04:18:25;;;;;;;20.40;13.70;;;;;;;16.49;73.86;99861.03;5001146;28;20034;-73
2021/09/26 04:20:50;;;;;;;16.98;11.50;;;;;;;16.49;74.22;99869.31;4977859;28;20046;-74
2021/09/26 04:23:16;;;;;;;18.27;10.35;;;;;;;16.49;74.32;99861.03;5002412;28;20036;-76
2021/09/26 04:25:41;;;;;;;21.48;13.27;;;;;;;16.50;74.46;99869.00;5000877;28;20511;-76
2021/09/26 04:28:06;;;;;;;9.35;7.95;;;;;;;16.54;74.19;99870.00;4980536;28;20388;-75
2021/09/26 04:30:33;;;;;;;10.48;7.75;;;;;;;16.55;74.17;99871.59;4997688;28;20034;-75
2021/09/26 04:36:20;;;;;;;6.40;5.85;;;;;;;16.56;73.84;99873.22;4999708;28;20121;-76
2021/09/26 04:38:46;;;;;;;9.05;7.47;;;;;;;16.58;73.86;99868.19;4986086;28;20449;-77
2021/09/26 04:41:11;;;;;;;6.72;4.88;;;;;;;16.63;73.60;99871.94;4966082;28;20051;-76
2021/09/26 04:43:37;;;;;;;4.88;4.47;;;;;;;16.68;74.26;99869.84;5006464;28;20057;-77
2021/09/26 04:46:02;;;;;;;4.03;3.63;;;;;;;16.72;73.50;99875.56;5005128;28;20026;-77
2021/09/26 04:48:28;;;;;;;3.80;3.60;;;;;;;16.70;73.48;99867.56;5006050;28;20030;-76
2021/09/26 04:50:53;;;;;;;3.75;3.55;;;;;;;16.75;73.50;99872.16;4989007;28;20054;-76
2021/09/26 04:53:19;;;;;;;3.50;3.17;;;;;;;16.81;73.88;99865.34;4993844;28;20069;-74
2021/09/26 04:55:44;;;;;;;3.53;3.33;;;;;;;16.85;73.73;99880.13;4974354;28;20087;-75
2021/09/26 04:58:10;;;;;;;3.60;3.30;;;;;;;16.86;73.62;99865.19;5004031;28;20317;-75
2021/09/26 05:00:36;;;;;;;5.35;4.95;;;;;;;16.90;73.55;99874.47;5005691;28;20519;-75
2021/09/26 05:03:04;;;;;;;3.85;3.55;;;;;;;16.91;73.28;99865.06;5004993;28;20138;-75
2021/09/26 05:05:29;;;;;;;3.80;3.55;;;;;;;16.93;73.01;99867.50;4986059;28;20038;-74
2021/09/26 05:07:55;;;;;;;4.43;4.13;;;;;;;16.96;73.53;99874.34;5001766;28;20082;-75
2021/09/26 05:10:21;;;;;;;4.57;4.28;;;;;;;16.97;73.36;99870.41;4999003;28;20583;-74
2021/09/26 05:12:47;;;;;;;3.30;3.10;;;;;;;17.00;73.01;99875.31;4969195;28;20035;-76
2021/09/26 05:15:13;;;;;;;3.08;2.85;;;;;;;17.00;73.15;99869.81;4996635;28;20018;-73
2021/09/26 05:17:38;;;;;;;3.70;3.30;;;;;;;16.99;72.90;99873.69;4976799;28;20049;-75
2021/09/26 05:20:05;;;;;;;3.78;2.90;;;;;;;17.00;73.30;99869.81;5004336;28;20034;-74
2021/09/26 05:22:30;;;;;;;4.18;3.97;;;;;;;16.98;72.87;99875.66;5002654;28;20030;-75
2021/09/26 05:24:56;;;;;;;3.38;3.17;;;;;;;17.01;72.88;99876.94;4999235;28;20116;-75
2021/09/26 05:27:22;;;;;;;3.35;3.15;;;;;;;17.01;72.98;99885.22;4983268;28;20071;-74
2021/09/26 05:29:48;;;;;;;2.03;1.83;;;;;;;17.00;72.91;99884.41;4982265;28;20026;-74
2021/09/26 05:32:13;;;;;;;2.17;1.95;;;;;;;17.01;73.39;99890.75;5003775;28;20418;-74
2021/09/26 05:34:39;;;;;;;5.65;5.22;;;;;;;16.98;72.98;99880.34;4984647;28;20049;-74
2021/09/26 05:37:05;;;;;;;3.97;3.67;;;;;;;16.98;73.08;99888.63;5006876;28;20026;-74
2021/09/26 05:39:31;;;;;;;3.80;3.60;;;;;;;16.96;73.05;99896.44;5000233;28;20388;-74
2021/09/26 05:42:03;;;;;;;4.57;4.20;;;;;;;16.93;73.62;99890.41;4987734;28;20466;-76
2021/09/26 05:44:37;;;;;;;5.45;4.97;;;;;;;16.97;73.01;99898.03;4984885;28;20038;-74
2021/09/26 05:47:03;;;;;;;4.47;4.10;;;;;;;16.97;73.16;99898.03;5003017;28;20018;-74
2021/09/26 05:49:29;;;;;;;6.13;5.60;;;;;;;16.94;73.67;99894.00;5002144;28;20098;-79
2021/09/26 05:51:54;;;;;;;6.88;6.28;;;;;;;16.95;73.15;99887.31;4985609;28;20055;-75
2021/09/26 05:54:20;;;;;;;6.88;4.30;;;;;;;16.95;73.57;99886.50;4982873;28;20047;-76
2021/09/26 05:56:46;;;;;;;4.13;3.90;;;;;;;16.95;73.44;99889.28;4979407;28;20159;-76
2021/09/26 05:59:12;;;;;;;7.40;6.43;;;;;;;16.95;73.92;99884.56;4970039;28;20160;-76
2021/09/26 06:01:37;;;;;;;12.40;7.40;;;;;;;16.96;73.78;99885.38;4984375;28;20034;-74
2021/09/26 06:04:03;;;;;;;6.72;6.22;;;;;;;16.93;73.87;99884.88;4976411;28;20039;-75
2021/09/26 06:06:28;;;;;;;6.75;6.15;;;;;;;16.95;73.51;99886.50;4982809;28;20030;-73
2021/09/26 06:08:54;;;;;;;19.58;13.15;;;;;;;16.93;73.67;99887.63;4980799;28;20065;-73
2021/09/26 06:11:19;;;;;;;8.52;7.70;;;;;;;16.93;73.75;99889.59;4978160;28;20035;-74
2021/09/26 06:13:45;;;;;;;7.15;6.65;;;;;;;16.96;74.09;99890.91;4979578;28;20030;-74
2021/09/26 06:16:10;;;;;;;6.40;5.95;;;;;;;17.00;73.67;99889.13;4994534;28;20030;-75
2021/09/26 06:18:35;;;;;;;6.60;5.80;;;;;;;17.04;74.31;99899.22;4977533;28;20542;-74
2021/09/26 06:21:02;;;;;;;10.70;8.38;;;;;;;17.06;74.09;99896.13;4973856;28;20102;-75
2021/09/26 06:23:28;;;;;;;12.70;10.10;;;;;;;17.07;74.44;99903.28;4966855;28;20034;-75
2021/09/26 06:25:53;;;;;;;19.98;11.60;;;;;;;17.08;73.89;99904.88;4979439;28;20038;-74
2021/09/26 06:28:19;;;;;;;10.30;9.02;;;;;;;17.11;74.09;99904.25;4978426;28;20055;-74
2021/09/26 06:30:44;;;;;;;14.15;10.85;;;;;;;17.15;74.12;99910.75;4973063;28;20035;-75
2021/09/26 06:33:10;;;;;;;16.25;11.27;;;;;;;17.17;74.33;99904.91;4957988;28;20041;-74
2021/09/26 06:35:35;;;;;;;35.70;18.80;;;;;;;17.16;74.63;99901.34;4989428;28;20030;-75
2021/09/26 06:38:01;;;;;;;35.72;19.13;;;;;;;17.12;74.89;99905.88;4977645;28;20034;-75
2021/09/26 06:40:27;;;;;;;26.25;15.85;;;;;;;17.07;75.00;99898.56;4977435;28;20035;-76
2021/09/26 06:42:52;;;;;;;28.77;15.85;;;;;;;17.04;75.08;99903.91;4986368;28;20041;-75
2021/09/26 06:45:18;;;;;;;30.25;16.80;;;;;;;16.98;75.48;99900.50;4976139;28;20030;-75
2021/09/26 06:47:44;;;;;;;30.90;17.13;;;;;;;16.93;76.00;99904.22;4977229;28;20439;-76
2021/09/26 06:50:10;;;;;;;28.70;16.75;;;;;;;16.92;75.86;99902.59;4980264;28;20034;-74
2021/09/26 06:52:36;;;;;;;26.90;17.33;;;;;;;16.89;76.30;99903.25;4986333;28;20046;-71
2021/09/26 06:55:03;;;;;;;16.13;11.93;;;;;;;16.92;76.06;99901.78;4982885;28;20034;-75
2021/09/26 06:57:28;;;;;;;11.95;9.77;;;;;;;16.92;76.26;99897.06;4991230;28;20445;-74
2021/09/26 06:59:54;;;;;;;20.90;12.90;;;;;;;16.95;76.76;99909.41;4989164;28;20033;-75
2021/09/26 07:02:23;;;;;;;23.85;14.48;;;;;;;16.96;76.80;99910.25;4965439;28;20034;-75
2021/09/26 07:04:49;;;;;;;32.00;15.90;;;;;;;16.98;76.52;99913.47;4993280;28;20046;-75
2021/09/26 07:07:19;;;;;;;20.63;14.73;;;;;;;16.97;76.53;99898.03;4995019;28;20057;-74
2021/09/26 07:09:48;;;;;;;25.52;16.45;;;;;;;16.98;76.31;99910.72;4989456;28;20030;-74
2021/09/26 07:12:15;;;;;;;23.88;15.70;;;;;;;16.98;77.01;99910.72;4991634;28;20054;-75
2021/09/26 07:14:40;;;;;;;28.63;16.55;;;;;;;16.93;76.62;99901.44;4976060;28;20031;-75
2021/09/26 07:17:08;;;;;;;26.48;17.30;;;;;;;16.93;77.20;99911.69;5001363;28;20057;-74
2021/09/26 07:19:34;;;;;;;29.60;14.13;;;;;;;16.95;77.16;99923.22;4984549;28;20036;-75
2021/09/26 07:21:59;;;;;;;22.52;15.65;;;;;;;16.93;77.55;99931.81;4985133;28;20049;-75
2021/09/26 07:24:25;;;;;;;21.30;14.32;;;;;;;16.92;77.29;99927.47;4968738;28;20033;-75
2021/09/26 07:26:50;;;;;;;23.52;14.55;;;;;;;16.93;77.46;99926.31;4975738;28;20043;-75
2021/09/26 07:29:16;;;;;;;21.75;12.85;;;;;;;16.96;77.19;99929.56;4982580;28;20026;-75
2021/09/26 07:31:44;;;;;;;15.77;12.45;;;;;;;17.00;77.30;99933.31;4967295;28;20445;-76
2021/09/26 07:34:11;;;;;;;13.55;10.93;;;;;;;17.04;77.35;99945.34;4981750;28;20076;-75
2021/09/26 07:36:37;;;;;;;16.38;13.30;;;;;;;16.99;77.26;99939.97;4995918;28;20030;-73
2021/09/26 07:39:04;;;;;;;10.45;9.57;;;;;;;17.10;77.57;99941.31;4997764;28;20042;-78
2021/09/26 07:41:29;;;;;;;13.43;12.13;;;;;;;17.10;77.15;99946.84;4976497;28;20338;-76
2021/09/26 07:43:55;;;;;;;12.48;11.18;;;;;;;17.15;77.21;99954.94;4977785;28;20045;-76
2021/09/26 07:46:22;;;;;;;12.63;11.57;;;;;;;17.21;76.97;99961.16;4990577;28;20059;-77
2021/09/26 07:48:48;;;;;;;12.95;11.65;;;;;;;17.22;76.67;99960.81;4997602;28;20086;-75
2021/09/26 07:51:14;;;;;;;20.02;13.43;;;;;;;17.32;77.24;99965.25;4988276;28;20095;-76
2021/09/26 07:53:39;;;;;;;12.25;10.95;;;;;;;17.52;76.37;99961.03;4987373;28;20074;-74
2021/09/26 07:56:09;;;;;;;16.80;12.02;;;;;;;17.74;76.54;99964.75;4978513;28;20042;-75
2021/09/26 07:58:34;;;;;;;16.45;12.52;;;;;;;17.93;75.50;99961.69;4990456;28;20022;-78
2021/09/26 08:01:01;;;;;;;17.35;11.30;;;;;;;18.20;75.16;99960.53;4979847;28;20251;-75
2021/09/26 08:03:27;;;;;;;11.90;10.40;;;;;;;18.51;74.41;99980.81;4993480;28;20045;-76
2021/09/26 08:05:55;;;;;;;15.38;10.52;;;;;;;18.89;73.96;99991.13;4980303;28;20022;-77
2021/09/26 08:08:25;;;;;;;17.48;11.68;;;;;;;19.18;73.17;99982.00;4992868;28;20026;-75
2021/09/26 08:10:51;;;;;;;17.15;12.57;;;;;;;19.71;71.74;99993.53;4960465;28;20388;-75
2021/09/26 08:13:19;;;;;;;14.52;11.15;;;;;;;20.16;70.34;99992.06;4998405;28;20042;-75
2021/09/26 08:15:48;;;;;;;14.90;11.55;;;;;;;20.86;68.67;99985.75;4975715;28;20041;-74
2021/09/26 08:18:13;;;;;;;9.55;8.70;;;;;;;21.45;66.50;99995.59;4984070;28;20091;-75
2021/09/26 08:20:39;;;;;;;14.05;10.70;;;;;;;21.88;63.72;100001.66;4961845;28;20425;-77
2021/09/26 08:23:04;;;;;;;7.45;6.85;;;;;;;22.31;64.19;100003.69;4982042;28;20034;-75
2021/09/26 08:25:30;;;;;;;11.43;10.02;;;;;;;22.39;61.17;100007.50;4993887;28;20053;-74
2021/09/26 08:27:55;;;;;;;11.65;10.15;;;;;;;22.36;59.48;100022.13;4953313;28;20037;-74
2021/09/26 08:30:21;;;;;;;15.82;10.45;;;;;;;22.26;59.70;100023.41;5002761;28;20083;-74
2021/09/26 08:32:48;;;;;;;10.13;9.30;;;;;;;22.16;59.38;100023.13;5003271;28;20027;-74
2021/09/26 08:35:14;;;;;;;10.65;9.60;;;;;;;21.86;58.70;100027.06;4982894;28;20036;-73
2021/09/26 08:37:39;;;;;;;8.60;7.82;;;;;;;21.48;58.40;100033.00;4978265;28;20030;-74
2021/09/26 08:40:06;;;;;;;7.88;7.28;;;;;;;21.13;59.51;100034.31;4982134;28;20031;-73
2021/09/26 08:42:37;;;;;;;9.48;8.68;;;;;;;20.70;59.43;100032.84;4988811;28;20041;-74
2021/09/26 08:45:05;;;;;;;8.38;7.68;;;;;;;20.33;60.15;100036.31;5001266;28;20538;-74
2021/09/26 08:47:36;;;;;;;8.75;7.97;;;;;;;20.10;60.58;100032.28;4983278;28;20038;-75
2021/09/26 08:50:02;;;;;;;9.35;8.65;;;;;;;20.04;61.23;100057.44;4994599;28;20318;-75
2021/09/26 08:52:28;;;;;;;7.85;7.25;;;;;;;20.42;60.85;100050.09;4995972;28;20109;-74
2021/09/26 08:54:54;;;;;;;9.48;8.55;;;;;;;20.76;58.98;100059.25;4979699;28;20094;-74
2021/09/26 08:57:21;;;;;;;13.18;7.72;;;;;;;20.77;58.01;100051.75;4980879;28;20046;-75
2021/09/26 08:59:47;;;;;;;11.23;6.78;;;;;;;20.79;57.63;100064.13;5003717;28;20018;-73
2021/09/26 09:02:12;;;;;;;9.30;6.63;;;;;;;20.95;57.26;100061.50;5000690;28;20037;-74
2021/09/26 09:04:40;;;;;;;6.90;6.40;;;;;;;21.18;56.63;100063.84;5003144;28;20085;-74
2021/09/26 09:07:07;;;;;;;7.43;6.90;;;;;;;21.58;55.60;100054.81;4989199;28;20754;-73
2021/09/26 09:09:47;;;;;;;6.50;5.97;;;;;;;21.90;55.07;100060.56;5000823;28;20109;-73
2021/09/26 09:12:13;;;;;;;7.60;7.00;;;;;;;21.61;53.63;100051.31;4982206;28;20045;-74
2021/09/26 09:14:55;;;;;;;7.13;6.70;;;;;;;21.24;54.86;100054.09;4967031;28;20069;-74
2021/09/26 09:17:31;;;;;;;7.20;6.68;;;;;;;20.95;55.87;100058.72;4993367;28;20033;-74
2021/09/26 09:20:20;;;;;;;7.53;6.38;;;;;;;20.78;56.65;100061.69;4979899;28;20026;-72
2021/09/26 09:23:05;;;;;;;6.10;5.80;;;;;;;20.73;57.33;100060.78;4997727;28;20026;-74
2021/09/26 09:25:37;;;;;;;11.40;6.15;;;;;;;20.75;57.51;100058.44;4976617;28;20792;-73
2021/09/26 09:28:15;;;;;;;8.25;6.80;;;;;;;20.77;57.75;100054.53;4995209;28;20045;-74
2021/09/26 09:30:42;;;;;;;8.68;7.32;;;;;;;20.86;57.58;100055.22;4995199;28;21196;-74
2021/09/26 09:33:11;;;;;;;7.93;7.35;;;;;;;21.00;57.31;100058.50;4993183;28;20034;-74
2021/09/26 09:35:42;;;;;;;5.70;5.38;;;;;;;21.56;57.90;100046.00;4974825;28;20357;-74
2021/09/26 09:38:09;;;;;;;6.25;5.70;;;;;;;22.23;55.48;100053.97;4995863;28;20069;-73
2021/09/26 09:40:35;;;;;;;4.28;4.07;;;;;;;22.92;53.91;100051.06;4975601;28;20022;-73
2021/09/26 09:43:01;;;;;;;3.80;3.50;;;;;;;23.61;53.19;100057.16;4981568;28;20038;-73
2021/09/26 09:45:30;;;;;;;3.97;3.78;;;;;;;24.25;50.37;100059.75;4980770;28;20038;-72
2021/09/26 09:47:59;;;;;;;4.10;3.80;;;;;;;24.32;49.06;100061.88;4994890;28;20034;-73
2021/09/26 09:50:51;;;;;;;4.50;4.30;;;;;;;24.11;48.69;100065.84;4994522;28;20506;-74
2021/09/26 09:53:33;;;;;;;3.13;2.92;;;;;;;24.21;49.85;100067.22;4957373;28;20047;-74
2021/09/26 09:56:00;;;;;;;3.97;3.72;;;;;;;24.31;47.66;100071.44;4978405;28;20034;-74
2021/09/26 09:58:32;;;;;;;4.00;3.78;;;;;;;24.06;47.77;100063.34;4994511;28;20026;-74
2021/09/26 10:00:58;;;;;;;4.45;4.05;;;;;;;23.73;47.90;100061.81;4995011;28;20500;-74
2021/09/26 10:03:42;;;;;;;3.97;3.72;;;;;;;23.76;48.62;100052.72;4994999;28;20169;-74
2021/09/26 10:06:18;;;;;;;3.60;3.47;;;;;;;24.19;48.63;100048.03;4999979;28;20077;-73
2021/09/26 10:08:44;;;;;;;3.03;2.83;;;;;;;24.63;47.48;100049.72;4975876;28;20033;-73
2021/09/26 10:11:09;;;;;;;6.75;3.50;;;;;;;25.45;46.66;100049.53;4977672;28;20393;-73
2021/09/26 10:13:36;;;;;;;2.45;2.35;;;;;;;25.88;45.57;100044.53;4997535;28;20178;-73
2021/09/26 10:16:10;;;;;;;2.70;2.60;;;;;;;26.11;44.94;100040.88;4993130;28;20046;-74
2021/09/26 10:18:37;;;;;;;3.03;2.85;;;;;;;26.44;44.18;100044.84;4991263;28;20366;-73
2021/09/26 10:21:06;;;;;;;2.50;2.33;;;;;;;26.82;43.49;100051.28;4996980;28;20487;-74
2021/09/26 10:23:32;;;;;;;2.38;2.28;;;;;;;26.96;42.41;100054.22;4988408;28;20029;-74
2021/09/26 10:26:00;;;;;;;1.77;1.70;;;;;;;26.96;42.41;100057.03;4978400;28;20045;-73
2021/09/26 10:28:28;;;;;;;2.63;2.53;;;;;;;26.92;41.57;100053.38;4998411;28;20154;-74
2021/09/26 10:31:03;;;;;;;4.53;2.00;;;;;;;26.63;41.77;100060.66;4978611;28;20057;-73
2021/09/26 10:33:29;;;;;;;2.03;1.92;;;;;;;26.90;41.85;100050.16;4981268;28;20029;-73
2021/09/26 10:35:57;;;;;;;2.47;1.95;;;;;;;26.95;40.95;100052.59;4976675;28;20034;-74
2021/09/26 10:38:23;;;;;;;1.90;1.80;;;;;;;26.60;41.11;100053.81;4985388;28;20088;-74
2021/09/26 10:40:49;;;;;;;3.60;3.45;;;;;;;26.10;41.19;100047.66;4991071;28;20045;-73
2021/09/26 10:43:27;;;;;;;2.90;2.70;;;;;;;26.42;42.01;100041.63;4978877;28;20034;-74
2021/09/26 10:46:23;;;;;;;2.70;2.50;;;;;;;27.18;40.60;100051.59;4993292;28;20362;-74
2021/09/26 10:49:12;;;;;;;3.80;2.70;;;;;;;28.21;39.97;100055.47;4992149;28;20023;-74
2021/09/26 10:51:56;;;;;;;2.78;2.58;;;;;;;29.35;36.62;100054.09;4992143;28;20031;-73
2021/09/26 10:54:22;;;;;;;2.60;2.50;;;;;;;29.95;35.50;100062.84;4996373;28;20034;-74
2021/09/26 10:57:11;;;;;;;2.70;2.13;;;;;;;29.88;34.86;100054.41;4979999;28;20050;-73
2021/09/26 10:59:41;;;;;;;3.55;3.35;;;;;;;29.02;35.23;100050.44;4991021;28;20041;-74
2021/09/26 11:02:22;;;;;;;2.47;2.38;;;;;;;28.63;37.42;100054.00;5048581;28;20505;-74
2021/09/26 11:04:53;;;;;;;2.42;2.33;;;;;;;29.32;36.54;100049.28;5028248;28;20029;-72
2021/09/26 11:07:21;;;;;;;2.15;2.05;;;;;;;30.32;35.32;100053.00;5015405;28;20118;-73
2021/09/26 11:09:56;;;;;;;2.38;2.20;;;;;;;31.46;34.83;100050.59;5026179;28;20057;-72
2021/09/26 11:12:39;;;;;;;1.65;1.63;;;;;;;32.17;32.82;100053.13;5016786;28;20026;-73
2021/09/26 11:15:15;;;;;;;3.33;2.17;;;;;;;32.57;31.29;100049.75;5031379;28;20029;-74
2021/09/26 11:17:55;;;;;;;2.28;2.13;;;;;;;32.01;31.20;100045.22;5041387;28;20042;-73
2021/09/26 11:20:29;;;;;;;7.53;1.63;;;;;;;32.01;32.33;100050.84;5020965;28;20050;-74
2021/09/26 11:23:08;;;;;;;4.88;1.90;;;;;;;32.99;31.46;100039.81;5057653;28;20119;-73
2021/09/26 11:25:56;;;;;;;3.28;3.08;;;;;;;34.00;29.51;100045.69;5034663;28;20353;-73
2021/09/26 11:28:34;;;;;;;2.08;1.88;;;;;;;34.20;29.49;100040.81;5023611;28;20029;-72
2021/09/26 11:31:05;;;;;;;0.88;0.88;;;;;;;34.37;28.80;100038.03;5029280;28;20075;-74
2021/09/26 11:33:54;;;;;;;2.00;1.48;;;;;;;34.52;27.94;100030.00;5018794;28;20030;-75
2021/09/26 11:36:21;;;;;;;1.65;1.55;;;;;;;33.66;28.33;100021.22;5028528;28;20684;-75
2021/09/26 11:38:47;;;;;;;3.63;2.10;;;;;;;32.62;29.27;100015.28;5030538;28;20053;-74